createdAt,value
2019-01-15T00:01:45.560Z,18.73
2019-01-15T00:04:14.848Z,23.87
2019-01-15T00:06:43.892Z,18.57
2019-01-15T00:09:12.487Z,23.10
2019-01-15T00:11:41.076Z,14.10
2019-01-15T00:14:10.106Z,14.45
2019-01-15T00:16:38.703Z,20.52
2019-01-15T00:19:07.264Z,15.40
2019-01-15T00:21:35.833Z,21.17
2019-01-15T00:24:04.470Z,15.45
2019-01-15T00:26:33.410Z,25.92
2019-01-15T00:29:02.014Z,11.73
2019-01-15T00:31:49.893Z,18.55
2019-01-15T00:34:18.438Z,18.60
2019-01-15T00:36:47.538Z,15.08
2019-01-15T00:39:16.120Z,20.72
2019-01-15T00:41:44.690Z,17.40
2019-01-15T00:44:13.304Z,13.20
2019-01-15T00:46:41.913Z,19.20
2019-01-15T00:49:10.547Z,17.60
2019-01-15T00:54:26.988Z,12.07
2019-01-15T00:56:55.538Z,18.02
2019-01-15T00:59:24.199Z,15.50
2019-01-15T01:04:40.457Z,13.53
2019-01-15T01:07:09.259Z,18.12
2019-01-15T01:09:38.003Z,17.92
2019-01-15T01:12:06.877Z,14.98
2019-01-15T01:14:35.523Z,17.45
2019-01-15T01:17:04.509Z,27.62
2019-01-15T01:22:20.798Z,12.47
2019-01-15T01:24:49.371Z,13.98
2019-01-15T01:27:17.960Z,17.37
2019-01-15T01:29:46.522Z,16.93
2019-01-15T01:32:15.169Z,13.53
2019-01-15T01:34:43.710Z,18.55
2019-01-15T01:37:12.286Z,20.25
2019-01-15T01:39:40.903Z,16.02
2019-01-15T01:42:09.585Z,21.97
2019-01-15T01:44:38.131Z,13.83
2019-01-15T01:47:06.677Z,16.87
2019-01-15T01:52:10.026Z,14.83
2019-01-15T01:54:38.621Z,18.57
2019-01-15T01:57:07.431Z,16.05
2019-01-15T01:59:35.998Z,20.60
2019-01-15T02:02:04.980Z,19.73
2019-01-15T02:04:33.570Z,11.63
2019-01-15T02:07:02.139Z,13.22
2019-01-15T02:09:31.286Z,17.32
2019-01-15T02:12:00.161Z,10.23
2019-01-15T02:14:28.980Z,18.32
2019-01-15T02:16:57.818Z,17.07
2019-01-15T02:19:26.632Z,21.33
2019-01-15T02:21:55.215Z,14.75
2019-01-15T02:24:24.107Z,23.15
2019-01-15T02:26:52.679Z,11.38
2019-01-15T02:29:21.235Z,14.18
2019-01-15T02:31:49.822Z,9.78
2019-01-15T02:34:18.387Z,20.55
2019-01-15T02:36:47.180Z,13.83
2019-01-15T02:39:15.793Z,11.60
2019-01-15T02:44:51.538Z,17.52
2019-01-15T02:47:21.102Z,12.58
2019-01-15T02:52:23.798Z,15.13
2019-01-15T02:54:52.382Z,16.62
2019-01-15T02:57:21.214Z,15.90
2019-01-15T02:59:49.766Z,12.43
2019-01-15T03:02:18.347Z,7.10
2019-01-15T03:04:47.223Z,14.25
2019-01-15T03:07:15.799Z,12.95
2019-01-15T03:09:44.912Z,20.40
2019-01-15T03:12:13.480Z,15.93
2019-01-15T03:14:42.311Z,14.68
2019-01-15T03:17:10.980Z,16.05
2019-01-15T03:19:58.958Z,12.90
2019-01-15T03:22:27.816Z,20.65
2019-01-15T03:28:24.097Z,19.25
2019-01-15T03:30:52.664Z,11.68
2019-01-15T03:33:21.362Z,11.28
2019-01-15T03:38:39.194Z,8.48
2019-01-15T03:41:08.009Z,21.20
2019-01-15T03:43:36.690Z,16.60
2019-01-15T03:46:05.561Z,13.40
2019-01-15T03:48:34.119Z,24.35
2019-01-15T03:51:02.669Z,27.77
2019-01-15T03:53:31.248Z,31.48
2019-01-15T03:55:59.826Z,16.02
2019-01-15T03:58:28.426Z,16.12
2019-01-15T04:00:57.012Z,18.37
2019-01-15T04:03:25.565Z,27.02
2019-01-15T04:05:54.170Z,17.70
2019-01-15T04:08:22.729Z,18.40
2019-01-15T04:10:51.329Z,21.55
2019-01-15T04:13:21.764Z,19.75
2019-01-15T04:15:50.166Z,19.32
2019-01-15T04:18:18.727Z,22.45
2019-01-15T04:20:47.295Z,15.63
2019-01-15T04:23:15.880Z,21.30
2019-01-15T04:25:44.666Z,18.50
2019-01-15T04:28:32.474Z,16.42
2019-01-15T04:31:20.526Z,24.82
2019-01-15T04:33:49.099Z,20.10
2019-01-15T04:36:17.655Z,20.30
2019-01-15T04:38:46.232Z,21.33
2019-01-15T04:41:14.791Z,13.80
2019-01-15T04:43:43.621Z,24.95
2019-01-15T04:48:59.815Z,28.07
2019-01-15T04:54:16.346Z,20.08
2019-01-15T04:56:46.944Z,19.25
2019-01-15T04:59:15.577Z,20.27
2019-01-15T05:01:44.368Z,22.60
2019-01-15T05:04:12.940Z,15.55
2019-01-15T05:06:41.789Z,23.12
2019-01-15T05:09:10.765Z,20.82
2019-01-15T05:11:39.364Z,25.12
2019-01-15T05:14:08.226Z,22.50
2019-01-15T05:16:36.806Z,18.52
2019-01-15T05:19:05.459Z,18.82
2019-01-15T05:21:34.271Z,16.40
2019-01-15T05:24:22.092Z,14.58
2019-01-15T05:26:50.717Z,18.87
2019-01-15T05:29:19.353Z,10.53
2019-01-15T05:31:51.752Z,21.00
2019-01-15T05:34:20.338Z,16.87
2019-01-15T05:36:49.074Z,17.20
2019-01-15T05:39:17.896Z,16.02
2019-01-15T05:41:46.529Z,16.10
2019-01-15T05:44:15.608Z,19.55
2019-01-15T05:46:44.190Z,29.60
2019-01-15T05:49:12.825Z,17.80
2019-01-15T05:51:42.477Z,26.35
2019-01-15T05:54:11.071Z,26.73
2019-01-15T05:56:39.768Z,24.47
2019-01-15T05:59:48.187Z,20.57
2019-01-15T06:04:51.343Z,20.12
2019-01-15T06:07:20.079Z,24.10
2019-01-15T06:09:48.776Z,23.65
2019-01-15T06:12:17.631Z,38.50
2019-01-15T06:14:46.203Z,19.35
2019-01-15T06:17:14.835Z,17.25
2019-01-15T06:19:43.633Z,22.48
2019-01-15T06:22:12.261Z,26.10
2019-01-15T06:24:41.119Z,24.12
2019-01-15T06:27:09.697Z,24.30
2019-01-15T06:29:38.257Z,21.82
2019-01-15T06:32:07.093Z,16.35
2019-01-15T06:34:36.038Z,14.45
2019-01-15T06:37:04.700Z,24.57
2019-01-15T06:39:33.836Z,15.15
2019-01-15T06:42:02.504Z,19.42
2019-01-15T06:44:31.118Z,21.15
2019-01-15T06:46:59.681Z,22.62
2019-01-15T06:49:28.272Z,21.70
2019-01-15T06:51:56.846Z,21.62
2019-01-15T06:54:25.436Z,15.60
2019-01-15T06:56:54.004Z,20.40
2019-01-15T06:59:22.564Z,18.77
2019-01-15T07:01:51.466Z,16.73
2019-01-15T07:04:20.285Z,15.23
2019-01-15T07:06:48.865Z,17.45
2019-01-15T07:09:17.739Z,14.53
2019-01-15T07:11:46.311Z,16.42
2019-01-15T07:14:14.877Z,19.00
2019-01-15T07:16:43.457Z,18.00
2019-01-15T07:19:12.013Z,20.15
2019-01-15T07:21:40.759Z,18.82
2019-01-15T07:24:09.725Z,19.75
2019-01-15T07:26:38.317Z,22.27
2019-01-15T07:29:06.968Z,13.80
2019-01-15T07:31:35.547Z,16.82
2019-01-15T07:34:04.202Z,22.73
2019-01-15T07:36:32.783Z,20.45
2019-01-15T07:39:01.423Z,23.95
2019-01-15T07:41:30.032Z,24.02
2019-01-15T07:44:04.357Z,19.87
2019-01-15T07:46:48.209Z,20.05
2019-01-15T07:49:36.161Z,25.27
2019-01-15T07:52:04.829Z,22.10
2019-01-15T07:54:33.657Z,19.67
2019-01-15T07:57:02.236Z,23.98
2019-01-15T07:59:30.828Z,21.82
2019-01-15T08:01:59.879Z,21.10
2019-01-15T08:04:28.468Z,23.47
2019-01-15T08:06:57.047Z,21.80
2019-01-15T08:09:25.634Z,20.02
2019-01-15T08:11:54.442Z,22.73
2019-01-15T08:14:23.046Z,21.50
2019-01-15T08:17:11.144Z,22.77
2019-01-15T08:19:39.737Z,23.27
2019-01-15T08:22:08.414Z,24.85
2019-01-15T08:24:37.007Z,30.40
2019-01-15T08:27:05.669Z,23.42
2019-01-15T08:29:34.265Z,19.37
2019-01-15T08:32:02.834Z,22.65
2019-01-15T08:37:05.886Z,18.60
2019-01-15T08:39:34.462Z,22.20
2019-01-15T08:42:03.046Z,18.65
2019-01-15T08:44:31.948Z,30.32
2019-01-15T08:47:00.539Z,22.10
2019-01-15T08:49:30.168Z,20.48
2019-01-15T08:51:58.758Z,18.85
2019-01-15T08:54:27.468Z,16.85
2019-01-15T08:56:56.096Z,20.25
2019-01-15T08:59:24.683Z,18.15
2019-01-15T09:01:53.276Z,22.80
2019-01-15T09:04:21.910Z,14.78
2019-01-15T09:06:50.815Z,21.75
2019-01-15T09:09:19.415Z,19.45
2019-01-15T09:11:48.303Z,17.85
2019-01-15T09:14:16.900Z,22.05
2019-01-15T09:16:46.044Z,17.00
2019-01-15T09:22:02.704Z,18.23
2019-01-15T09:24:31.505Z,26.90
2019-01-15T09:27:00.161Z,21.40
2019-01-15T09:32:03.238Z,17.55
2019-01-15T09:34:31.838Z,16.80
2019-01-15T09:37:00.483Z,20.00
2019-01-15T09:39:29.079Z,16.02
2019-01-15T09:41:57.655Z,24.90
2019-01-15T09:44:26.302Z,19.55
2019-01-15T09:46:55.109Z,20.23
2019-01-15T09:49:23.724Z,21.97
2019-01-15T09:51:52.591Z,18.43
2019-01-15T09:54:21.154Z,20.53
2019-01-15T09:56:49.814Z,21.10
2019-01-15T09:59:18.394Z,15.70
2019-01-15T10:01:47.235Z,21.17
2019-01-15T10:04:15.862Z,23.40
2019-01-15T10:06:44.431Z,19.97
2019-01-15T10:09:12.992Z,17.27
2019-01-15T10:11:41.576Z,19.20
2019-01-15T10:14:10.539Z,17.33
2019-01-15T10:16:39.262Z,17.10
2019-01-15T10:19:07.834Z,19.60
2019-01-15T10:21:55.672Z,17.50
2019-01-15T10:24:24.336Z,18.20
2019-01-15T10:32:46.211Z,22.50
2019-01-15T10:35:44.277Z,22.27
2019-01-15T10:38:12.865Z,28.40
2019-01-15T10:40:41.731Z,20.60
2019-01-15T10:43:10.352Z,21.10
2019-01-15T10:45:38.991Z,24.13
2019-01-15T10:48:07.580Z,27.27
2019-01-15T10:50:36.235Z,30.57
2019-01-15T10:53:24.205Z,25.95
2019-01-15T10:55:52.841Z,25.93
2019-01-15T10:58:21.428Z,27.10
2019-01-15T11:00:50.090Z,24.45
2019-01-15T11:03:18.681Z,24.67
2019-01-15T11:05:47.431Z,30.92
2019-01-15T11:08:16.190Z,26.03
2019-01-15T11:10:44.731Z,30.03
2019-01-15T11:13:13.381Z,31.13
2019-01-15T11:15:43.474Z,30.17
2019-01-15T11:18:12.486Z,28.67
2019-01-15T11:20:41.588Z,39.73
2019-01-15T11:23:10.184Z,25.50
2019-01-15T11:31:20.319Z,30.90
2019-01-15T11:33:49.184Z,31.00
2019-01-15T11:36:17.813Z,27.93
2019-01-15T11:38:46.394Z,25.80
2019-01-15T11:41:15.313Z,26.93
2019-01-15T11:43:43.900Z,23.83
2019-01-15T11:46:12.478Z,33.35
2019-01-15T11:48:41.043Z,34.00
2019-01-15T11:51:09.654Z,25.77
2019-01-15T11:53:38.218Z,24.63
2019-01-15T11:58:41.087Z,26.27
2019-01-15T12:01:13.447Z,30.63
2019-01-15T12:04:01.285Z,26.73
2019-01-15T12:06:49.237Z,32.63
2019-01-15T12:09:36.925Z,24.60
2019-01-15T12:12:43.793Z,28.27
2019-01-15T12:15:31.519Z,25.40
2019-01-15T12:18:19.619Z,31.95
2019-01-15T12:21:07.283Z,26.10
2019-01-15T12:23:54.998Z,21.00
2019-01-15T12:26:42.651Z,26.23
2019-01-15T12:29:30.248Z,28.57
2019-01-15T12:32:17.959Z,23.30
2019-01-15T12:35:05.657Z,24.47
2019-01-15T12:37:53.368Z,25.30
2019-01-15T12:40:31.432Z,28.90
2019-01-15T12:43:19.099Z,32.87
2019-01-15T12:46:06.717Z,23.50
2019-01-15T12:48:54.362Z,29.40
2019-01-15T12:51:42.219Z,24.23
2019-01-15T12:54:18.755Z,22.67
2019-01-15T12:57:06.384Z,26.97
2019-01-15T12:59:54.214Z,26.70
2019-01-15T13:02:41.812Z,26.87
2019-01-15T13:05:29.583Z,30.57
2019-01-15T13:08:17.183Z,27.67
2019-01-15T13:11:05.070Z,24.67
2019-01-15T13:13:52.666Z,26.60
2019-01-15T13:16:40.299Z,21.40
2019-01-15T13:19:28.115Z,23.57
2019-01-15T13:22:04.573Z,31.10
2019-01-15T13:24:53.287Z,25.57
2019-01-15T13:27:38.947Z,29.67
2019-01-15T13:30:31.040Z,24.30
2019-01-15T13:33:18.636Z,21.10
2019-01-15T13:36:06.255Z,23.77
2019-01-15T13:38:53.874Z,19.97
2019-01-15T13:44:33.891Z,21.60
2019-01-15T13:47:21.482Z,18.13
2019-01-15T13:50:00.896Z,20.77
2019-01-15T13:52:48.511Z,20.43
2019-01-15T13:55:36.695Z,22.87
2019-01-15T13:58:25.074Z,26.30
2019-01-15T14:00:59.658Z,20.77
2019-01-15T14:03:47.520Z,20.77
2019-01-15T14:06:27.740Z,19.90
2019-01-15T14:11:59.028Z,19.03
2019-01-15T14:14:49.936Z,17.03
2019-01-15T14:17:38.038Z,23.30
2019-01-15T14:20:26.821Z,17.40
2019-01-15T14:23:04.617Z,16.70
2019-01-15T14:25:52.295Z,16.10
2019-01-15T14:28:26.561Z,17.97
2019-01-15T14:31:14.253Z,24.50
2019-01-15T14:34:21.166Z,15.80
2019-01-15T14:37:09.049Z,14.57
2019-01-15T14:39:56.822Z,20.63
2019-01-15T14:42:45.871Z,11.80
2019-01-15T14:45:34.431Z,11.40
2019-01-15T14:48:22.175Z,8.77
2019-01-15T14:51:09.938Z,10.07
2019-01-15T14:53:57.564Z,12.63
2019-01-15T14:56:45.262Z,16.17
2019-01-15T14:59:33.205Z,11.33
2019-01-15T15:02:13.651Z,12.57
2019-01-15T15:05:01.625Z,9.30
2019-01-15T15:10:46.050Z,15.13
2019-01-15T15:19:21.246Z,8.50
2019-01-15T15:22:08.958Z,13.83
2019-01-15T15:24:56.743Z,12.63
2019-01-15T15:27:44.319Z,9.60
2019-01-15T15:30:33.801Z,9.13
2019-01-15T15:33:22.655Z,9.27
2019-01-15T15:36:10.659Z,11.60
2019-01-15T15:38:58.481Z,9.90
2019-01-15T15:41:46.526Z,13.83
2019-01-15T15:44:34.084Z,11.63
2019-01-15T15:47:21.918Z,8.73
2019-01-15T15:50:09.625Z,10.43
2019-01-15T15:52:57.484Z,7.33
2019-01-15T15:55:38.537Z,17.50
2019-01-15T15:58:26.571Z,12.13
2019-01-15T16:01:03.643Z,16.33
2019-01-15T16:03:51.233Z,12.30
2019-01-15T16:06:38.833Z,7.57
2019-01-15T16:09:27.032Z,7.00
2019-01-15T16:12:15.082Z,9.47
2019-01-15T16:15:02.754Z,11.10
2019-01-15T16:17:50.623Z,12.40
2019-01-15T16:20:27.481Z,10.40
2019-01-15T16:23:15.124Z,9.30
2019-01-15T16:26:02.769Z,11.73
2019-01-15T16:28:50.405Z,14.13
2019-01-15T16:31:38.261Z,12.23
2019-01-15T16:34:26.073Z,11.40
2019-01-15T16:37:13.837Z,9.90
2019-01-15T16:39:54.399Z,10.10
2019-01-15T16:42:42.290Z,10.60
2019-01-15T16:45:30.394Z,16.17
2019-01-15T16:48:08.011Z,12.13
2019-01-15T16:50:55.551Z,11.15
2019-01-15T16:53:32.652Z,14.00
2019-01-15T16:56:20.309Z,8.10
2019-01-15T16:59:08.179Z,11.87
2019-01-15T17:01:44.680Z,11.73
2019-01-15T17:04:26.230Z,12.50
2019-01-15T17:07:13.896Z,15.47
2019-01-15T17:10:01.830Z,11.20
2019-01-15T17:12:49.684Z,17.75
2019-01-15T17:18:18.576Z,14.73
2019-01-15T17:21:06.159Z,15.53
2019-01-15T17:23:53.790Z,14.20
2019-01-15T17:26:41.605Z,11.50
2019-01-15T17:29:18.951Z,11.83
2019-01-15T17:31:57.927Z,12.60
2019-01-15T17:34:37.277Z,15.53
2019-01-15T17:37:25.353Z,12.50
2019-01-15T17:40:13.199Z,12.10
2019-01-15T17:43:01.045Z,14.83
2019-01-15T17:45:49.199Z,15.88
2019-01-15T17:48:36.932Z,17.27
2019-01-15T17:51:24.529Z,20.70
2019-01-15T17:54:12.168Z,23.10
2019-01-15T17:56:59.204Z,23.23
2019-01-15T17:59:46.805Z,22.43
2019-01-15T18:02:34.417Z,25.57
2019-01-15T18:05:23.661Z,24.70
2019-01-15T18:08:11.252Z,21.43
2019-01-15T18:11:18.097Z,21.30
2019-01-15T18:14:03.911Z,25.00
2019-01-15T18:16:51.754Z,22.23
2019-01-15T18:19:29.431Z,20.80
2019-01-15T18:22:39.344Z,23.83
2019-01-15T18:25:27.193Z,26.90
2019-01-15T18:31:15.906Z,22.63
2019-01-15T18:33:54.310Z,29.87
2019-01-15T18:36:35.550Z,27.60
2019-01-15T18:39:24.984Z,25.50
2019-01-15T18:42:12.618Z,26.23
2019-01-15T18:45:00.270Z,26.47
2019-01-15T18:47:48.418Z,31.93
2019-01-15T18:50:34.190Z,28.70
2019-01-15T18:53:21.786Z,31.33
2019-01-15T18:56:09.381Z,34.83
2019-01-15T18:58:56.985Z,33.07
2019-01-15T19:01:44.619Z,27.37
2019-01-15T19:04:32.204Z,26.07
2019-01-15T19:07:19.827Z,25.77
2019-01-15T19:10:07.417Z,29.53
2019-01-15T19:12:55.071Z,27.20
2019-01-15T19:15:44.232Z,25.03
2019-01-15T19:18:31.914Z,29.00
2019-01-15T19:21:19.623Z,24.67
2019-01-15T19:24:07.420Z,27.03
2019-01-15T19:26:47.877Z,28.27
2019-01-15T19:29:37.277Z,29.17
2019-01-15T19:32:24.992Z,33.50
2019-01-15T19:35:12.601Z,36.07
2019-01-15T19:38:00.195Z,34.00
2019-01-15T19:40:49.632Z,28.50
2019-01-15T19:43:37.523Z,29.20
2019-01-15T19:46:25.432Z,31.40
2019-01-15T19:49:03.343Z,26.87
2019-01-15T19:51:50.997Z,25.83
2019-01-15T19:54:41.940Z,34.73
2019-01-15T19:57:29.787Z,25.67
2019-01-15T20:03:29.809Z,31.23
2019-01-15T20:06:19.510Z,31.87
2019-01-15T20:09:07.338Z,29.73
2019-01-15T20:11:55.008Z,26.33
2019-01-15T20:17:33.108Z,28.47
2019-01-15T20:20:20.953Z,30.70
2019-01-15T20:23:08.734Z,24.93
2019-01-15T20:25:56.481Z,27.63
2019-01-15T20:28:44.333Z,23.33
2019-01-15T20:31:22.365Z,21.93
2019-01-15T20:34:10.342Z,22.27
2019-01-15T20:36:57.937Z,21.90
2019-01-15T20:39:45.722Z,19.23
2019-01-15T20:45:38.724Z,26.40
2019-01-15T20:48:26.686Z,19.80
2019-01-15T20:51:14.267Z,25.07
2019-01-15T20:54:01.921Z,17.73
2019-01-15T20:56:49.751Z,18.13
2019-01-15T20:59:37.502Z,23.17
2019-01-15T21:02:15.284Z,16.93
2019-01-15T21:05:02.932Z,16.90
2019-01-15T21:07:50.792Z,18.00
2019-01-15T21:10:39.671Z,15.17
2019-01-15T21:13:27.543Z,17.33
2019-01-15T21:16:15.209Z,16.20
2019-01-15T21:19:02.785Z,12.80
2019-01-15T21:21:50.673Z,12.40
2019-01-15T21:24:30.128Z,14.07
2019-01-15T21:27:17.710Z,12.10
2019-01-15T21:29:54.862Z,11.53
2019-01-15T21:32:42.472Z,13.90
2019-01-15T21:35:30.398Z,11.33
2019-01-15T21:38:18.009Z,14.63
2019-01-15T21:41:05.595Z,16.10
2019-01-15T21:43:53.221Z,19.10
2019-01-15T21:46:40.900Z,17.43
2019-01-15T21:49:28.549Z,16.20
2019-01-15T21:52:16.268Z,12.90
2019-01-15T21:55:03.870Z,22.87
2019-01-15T21:57:51.747Z,14.20
2019-01-15T22:00:39.340Z,13.50
2019-01-15T22:03:26.948Z,12.10
2019-01-15T22:06:14.532Z,14.40
2019-01-15T22:08:55.354Z,16.40
2019-01-15T22:11:42.934Z,12.07
2019-01-15T22:14:30.565Z,15.23
2019-01-15T22:17:18.242Z,16.07
2019-01-15T22:20:05.831Z,21.60
2019-01-15T22:22:53.438Z,20.87
2019-01-15T22:25:40.923Z,25.40
2019-01-15T22:28:28.560Z,23.37
2019-01-15T22:31:16.168Z,26.00
2019-01-15T22:34:03.798Z,20.20
2019-01-15T22:36:39.657Z,24.53
2019-01-15T22:39:46.751Z,21.50
2019-01-15T22:42:34.348Z,24.57
2019-01-15T22:45:30.046Z,22.60
2019-01-15T22:48:17.894Z,26.73
2019-01-15T22:51:05.811Z,24.37
2019-01-15T22:54:03.627Z,26.63
2019-01-15T22:56:39.884Z,30.13
2019-01-15T22:59:27.486Z,28.53
2019-01-15T23:02:15.089Z,32.03
2019-01-15T23:04:52.284Z,30.95
2019-01-15T23:07:40.133Z,33.67
2019-01-15T23:10:28.432Z,32.47
2019-01-15T23:13:16.110Z,30.43
2019-01-15T23:16:03.687Z,31.00
2019-01-15T23:18:51.297Z,30.30
2019-01-15T23:21:31.491Z,28.97
2019-01-15T23:24:19.098Z,35.83
2019-01-15T23:27:06.701Z,30.60
2019-01-15T23:29:54.327Z,26.83
2019-01-15T23:32:44.686Z,27.63
2019-01-15T23:35:32.307Z,22.70
2019-01-15T23:38:19.923Z,23.52
2019-01-15T23:41:07.522Z,24.13
2019-01-15T23:43:55.382Z,26.17
2019-01-15T23:46:43.058Z,21.60
2019-01-15T23:49:23.276Z,19.87
2019-01-15T23:52:00.124Z,16.70
2019-01-15T23:54:47.724Z,18.90
2019-01-15T23:57:35.361Z,16.77
